Time;durP1;ratioP1;P1;durP2;ratioP2;P2;SDS_P1;SDS_P2;PMS_P1;PMS_P2;Temp;Humidity;BMP_temperature;BMP_pressure;BME280_temperature;BME280_humidity;BME280_pressure;Samples;Min_cycle;Max_cycle;Signal;HPM_P1;HPM_P2
2023/12/15 00:01:05;;;;;;;40.67;24.55;;;;;;;;;;5098936;28;20424;-78
2023/12/15 00:03:31;;;;;;;29.42;22.98;;;;;;;;;;5098783;28;20486;-78
2023/12/15 00:05:58;;;;;;;36.80;23.67;;;;;;;;;;5099018;28;20058;-78
2023/12/15 00:08:24;;;;;;;31.85;22.35;;;;;;;;;;5098725;28;20053;-78
2023/12/15 00:10:50;;;;;;;39.30;23.33;;;;;;;;;;5098436;28;20062;-78
2023/12/15 00:13:17;;;;;;;36.35;23.75;;;;;;;;;;5082092;28;20138;-78
2023/12/15 00:15:43;;;;;;;32.60;21.63;;;;;;;;;;5098547;28;20053;-78
2023/12/15 00:18:09;;;;;;;35.63;22.65;;;;;;;;;;5099014;28;20055;-78
2023/12/15 00:20:35;;;;;;;33.53;23.15;;;;;;;;;;5082489;28;20127;-78
2023/12/15 00:23:01;;;;;;;31.92;22.90;;;;;;;;;;5098738;28;20044;-78
2023/12/15 00:25:27;;;;;;;37.90;24.38;;;;;;;;;;5082388;28;20047;-79
2023/12/15 00:27:53;;;;;;;34.88;23.65;;;;;;;;;;5082340;28;20097;-79
2023/12/15 00:30:19;;;;;;;33.88;23.23;;;;;;;;;;5098284;28;20040;-79
2023/12/15 00:32:45;;;;;;;35.78;24.17;;;;;;;;;;5065642;28;20048;-78
2023/12/15 00:35:11;;;;;;;36.38;23.95;;;;;;;;;;5099110;28;20104;-79
2023/12/15 00:37:37;;;;;;;34.40;22.38;;;;;;;;;;5081981;28;20044;-79
2023/12/15 00:40:03;;;;;;;36.00;23.83;;;;;;;;;;5081307;28;20082;-79
2023/12/15 00:42:29;;;;;;;38.55;24.63;;;;;;;;;;5098178;28;20391;-79
2023/12/15 00:44:56;;;;;;;41.88;25.02;;;;;;;;;;5098891;28;20510;-78
2023/12/15 00:47:22;;;;;;;36.15;22.48;;;;;;;;;;5081345;28;20127;-78
2023/12/15 00:49:48;;;;;;;35.55;22.38;;;;;;;;;;5115801;28;20052;-79
2023/12/15 00:52:14;;;;;;;38.45;22.65;;;;;;;;;;5081949;28;20050;-79
2023/12/15 00:54:41;;;;;;;36.17;23.45;;;;;;;;;;5097833;28;20052;-79
2023/12/15 00:57:07;;;;;;;32.70;22.70;;;;;;;;;;5098658;28;20090;-79
2023/12/15 00:59:33;;;;;;;37.30;23.95;;;;;;;;;;5080739;28;20047;-79
2023/12/15 01:01:59;;;;;;;37.58;22.70;;;;;;;;;;5097291;28;20059;-79
2023/12/15 01:04:25;;;;;;;36.90;24.35;;;;;;;;;;5097572;28;20046;-79
2023/12/15 01:06:51;;;;;;;47.05;27.42;;;;;;;;;;5080847;28;20053;-79
2023/12/15 01:09:17;;;;;;;34.78;22.98;;;;;;;;;;5098287;28;20054;-79
2023/12/15 01:11:43;;;;;;;38.92;24.23;;;;;;;;;;5097165;28;20042;-79
2023/12/15 01:14:09;;;;;;;40.65;24.77;;;;;;;;;;5064057;28;20044;-79
2023/12/15 01:16:35;;;;;;;40.50;24.95;;;;;;;;;;5080645;28;20087;-79
2023/12/15 01:19:01;;;;;;;39.28;25.42;;;;;;;;;;5097311;28;20058;-79
2023/12/15 01:21:28;;;;;;;37.83;25.83;;;;;;;;;;5080491;28;20035;-79
2023/12/15 01:23:54;;;;;;;41.13;25.83;;;;;;;;;;5097323;28;20157;-79
2023/12/15 01:26:20;;;;;;;33.47;24.52;;;;;;;;;;5096922;28;20055;-79
2023/12/15 01:28:46;;;;;;;42.67;25.83;;;;;;;;;;5097207;28;20523;-79
2023/12/15 01:31:13;;;;;;;42.10;26.92;;;;;;;;;;5080060;28;20395;-79
2023/12/15 01:33:40;;;;;;;37.83;25.27;;;;;;;;;;5080924;28;20113;-79
2023/12/15 01:36:06;;;;;;;37.53;25.35;;;;;;;;;;5097374;28;20054;-79
2023/12/15 01:38:32;;;;;;;40.88;25.30;;;;;;;;;;5096940;28;20047;-78
2023/12/15 01:40:58;;;;;;;41.92;26.90;;;;;;;;;;5080062;28;20051;-78
2023/12/15 01:43:24;;;;;;;40.10;26.70;;;;;;;;;;5097170;28;20063;-78
2023/12/15 01:45:50;;;;;;;41.20;26.98;;;;;;;;;;5080727;28;20043;-78
2023/12/15 01:48:16;;;;;;;37.33;26.90;;;;;;;;;;5097042;28;20092;-78
2023/12/15 01:50:43;;;;;;;42.40;27.92;;;;;;;;;;5079580;28;20061;-78
2023/12/15 01:53:09;;;;;;;41.45;28.85;;;;;;;;;;5096812;28;20048;-78
2023/12/15 01:55:35;;;;;;;39.65;27.40;;;;;;;;;;5079906;28;20044;-78
2023/12/15 01:58:01;;;;;;;43.42;27.40;;;;;;;;;;5097488;28;20044;-78
2023/12/15 02:00:27;;;;;;;41.28;28.50;;;;;;;;;;5097350;28;20051;-78
2023/12/15 02:02:53;;;;;;;46.08;28.55;;;;;;;;;;5079996;28;20044;-78
2023/12/15 02:05:19;;;;;;;43.92;29.73;;;;;;;;;;5079760;28;20044;-78
2023/12/15 02:07:45;;;;;;;45.65;30.15;;;;;;;;;;5079831;28;20047;-78
2023/12/15 02:10:11;;;;;;;44.55;28.40;;;;;;;;;;5096012;28;20039;-78
2023/12/15 02:12:37;;;;;;;38.13;27.45;;;;;;;;;;5079567;28;20109;-78
2023/12/15 02:15:03;;;;;;;43.50;29.75;;;;;;;;;;5096898;28;20126;-78
2023/12/15 02:17:29;;;;;;;45.58;29.55;;;;;;;;;;5080441;28;20101;-79
2023/12/15 02:19:56;;;;;;;43.15;30.40;;;;;;;;;;5079861;28;20399;-79
2023/12/15 02:22:23;;;;;;;44.67;29.38;;;;;;;;;;5079212;28;20487;-78
2023/12/15 02:24:49;;;;;;;53.80;31.83;;;;;;;;;;5095973;28;20050;-79
2023/12/15 02:27:15;;;;;;;49.60;31.67;;;;;;;;;;5096250;28;20044;-78
2023/12/15 02:29:41;;;;;;;45.10;30.48;;;;;;;;;;5079443;28;20491;-78
2023/12/15 02:32:07;;;;;;;44.33;30.48;;;;;;;;;;5062535;28;20522;-78
2023/12/15 02:34:33;;;;;;;42.17;29.90;;;;;;;;;;5079358;28;20480;-78
2023/12/15 02:36:59;;;;;;;43.67;31.80;;;;;;;;;;5096153;28;20434;-78
2023/12/15 02:39:25;;;;;;;48.95;31.20;;;;;;;;;;5096741;28;20063;-78
2023/12/15 02:41:51;;;;;;;49.83;33.40;;;;;;;;;;5079594;28;20067;-78
2023/12/15 02:44:17;;;;;;;43.35;32.83;;;;;;;;;;5096905;28;20373;-78
2023/12/15 02:46:43;;;;;;;47.83;33.00;;;;;;;;;;5096952;28;20215;-78
2023/12/15 02:49:09;;;;;;;50.80;33.50;;;;;;;;;;5082204;28;20055;-78
2023/12/15 02:51:35;;;;;;;53.05;33.13;;;;;;;;;;5079720;28;20392;-78
2023/12/15 02:54:01;;;;;;;69.78;35.80;;;;;;;;;;5097548;28;20142;-78
2023/12/15 02:56:28;;;;;;;51.85;32.67;;;;;;;;;;5097494;28;20044;-78
2023/12/15 02:58:54;;;;;;;55.22;32.72;;;;;;;;;;5096905;28;20040;-78
2023/12/15 03:01:20;;;;;;;64.15;36.25;;;;;;;;;;5097415;28;20097;-78
2023/12/15 03:03:47;;;;;;;62.47;37.60;;;;;;;;;;5097571;28;20052;-78
2023/12/15 03:06:13;;;;;;;60.75;35.20;;;;;;;;;;5080455;28;20048;-78
2023/12/15 03:08:39;;;;;;;68.68;37.20;;;;;;;;;;5096491;28;20134;-78
2023/12/15 03:11:06;;;;;;;64.03;35.30;;;;;;;;;;5096197;28;20453;-78
2023/12/15 03:13:33;;;;;;;62.35;36.53;;;;;;;;;;5079428;28;20048;-79
2023/12/15 03:16:09;;;;;;;62.58;38.17;;;;;;;;;;5096374;28;20130;-79
2023/12/15 03:18:35;;;;;;;64.05;36.10;;;;;;;;;;5079707;28;20101;-79
2023/12/15 03:21:01;;;;;;;70.07;36.80;;;;;;;;;;5096185;28;20052;-79
2023/12/15 03:23:27;;;;;;;65.43;37.22;;;;;;;;;;5096700;28;20537;-78
2023/12/15 03:25:53;;;;;;;63.25;36.88;;;;;;;;;;5096592;28;20423;-79
2023/12/15 03:28:20;;;;;;;68.85;37.45;;;;;;;;;;5079152;28;20052;-79
2023/12/15 03:30:46;;;;;;;83.05;39.72;;;;;;;;;;5095808;28;20036;-79
2023/12/15 03:33:12;;;;;;;65.55;37.10;;;;;;;;;;5079033;28;20055;-78
2023/12/15 03:35:38;;;;;;;68.22;39.40;;;;;;;;;;5079824;28;20101;-78
2023/12/15 03:38:07;;;;;;;76.95;39.30;;;;;;;;;;5079231;28;20048;-78
2023/12/15 03:40:33;;;;;;;75.13;39.97;;;;;;;;;;5078829;28;20048;-78
2023/12/15 03:42:59;;;;;;;79.13;39.78;;;;;;;;;;5095798;28;20039;-78
2023/12/15 03:45:25;;;;;;;79.10;39.72;;;;;;;;;;5096585;28;20050;-78
2023/12/15 03:47:51;;;;;;;81.25;41.72;;;;;;;;;;5079051;28;20053;-78
2023/12/15 03:50:18;;;;;;;80.20;41.33;;;;;;;;;;5094538;28;20138;-78
2023/12/15 03:52:44;;;;;;;78.05;40.60;;;;;;;;;;5077290;28;20052;-78
2023/12/15 03:55:10;;;;;;;85.88;43.50;;;;;;;;;;5094355;28;20040;-78
2023/12/15 03:57:36;;;;;;;76.68;42.28;;;;;;;;;;5094386;28;20044;-78
2023/12/15 04:00:02;;;;;;;74.00;42.35;;;;;;;;;;5094139;28;20051;-78
2023/12/15 04:02:28;;;;;;;92.55;43.78;;;;;;;;;;5094546;28;20496;-78
2023/12/15 04:04:55;;;;;;;76.38;41.63;;;;;;;;;;5060800;28;20391;-78
2023/12/15 04:07:21;;;;;;;89.88;44.53;;;;;;;;;;5078284;28;20149;-78
2023/12/15 04:09:47;;;;;;;81.30;44.20;;;;;;;;;;5077983;28;20097;-78
2023/12/15 04:12:13;;;;;;;83.05;44.22;;;;;;;;;;5094117;28;20047;-78
2023/12/15 04:14:39;;;;;;;91.30;44.15;;;;;;;;;;5094381;28;20492;-78
2023/12/15 04:17:05;;;;;;;89.05;44.78;;;;;;;;;;5093886;28;20578;-78
2023/12/15 04:19:32;;;;;;;81.20;43.20;;;;;;;;;;5093985;28;20389;-78
2023/12/15 04:21:58;;;;;;;83.53;42.55;;;;;;;;;;5093985;28;20051;-79
2023/12/15 04:24:25;;;;;;;88.97;45.63;;;;;;;;;;5077037;28;20047;-78
2023/12/15 04:26:51;;;;;;;87.10;43.70;;;;;;;;;;5077203;28;20055;-79
2023/12/15 04:29:17;;;;;;;87.00;45.45;;;;;;;;;;5093835;28;20044;-79
2023/12/15 04:31:43;;;;;;;105.80;46.60;;;;;;;;;;5093833;28;20044;-79
2023/12/15 04:34:09;;;;;;;86.18;46.22;;;;;;;;;;5093764;28;20047;-78
2023/12/15 04:36:35;;;;;;;80.93;43.88;;;;;;;;;;5093721;28;20047;-78
2023/12/15 04:39:02;;;;;;;87.65;44.78;;;;;;;;;;5093476;28;20499;-79
2023/12/15 04:41:28;;;;;;;95.30;47.50;;;;;;;;;;5093615;28;20088;-78
2023/12/15 04:43:55;;;;;;;84.20;44.60;;;;;;;;;;5077417;28;20052;-78
2023/12/15 04:46:28;;;;;;;90.90;45.75;;;;;;;;;;5077508;28;20144;-78
2023/12/15 04:48:55;;;;;;;92.72;46.00;;;;;;;;;;5093548;28;20047;-78
2023/12/15 04:51:21;;;;;;;108.40;46.33;;;;;;;;;;5038191;28;1099862;-79
2023/12/15 04:53:48;;;;;;;91.05;44.55;;;;;;;;;;5095253;28;20102;-78
2023/12/15 04:56:14;;;;;;;92.57;46.40;;;;;;;;;;5077813;28;20135;-78
2023/12/15 04:58:41;;;;;;;92.10;46.80;;;;;;;;;;5094372;28;20049;-79
2023/12/15 05:01:13;;;;;;;89.60;45.20;;;;;;;;;;5077288;28;20143;-79
2023/12/15 05:03:39;;;;;;;87.72;44.67;;;;;;;;;;5094111;28;20044;-79
2023/12/15 05:06:06;;;;;;;100.70;45.08;;;;;;;;;;5094296;28;20044;-80
2023/12/15 05:08:32;;;;;;;91.28;46.33;;;;;;;;;;5093852;28;20055;-79
2023/12/15 05:10:58;;;;;;;92.57;45.85;;;;;;;;;;5076342;28;20122;-78
2023/12/15 05:13:24;;;;;;;88.45;44.00;;;;;;;;;;5094839;28;20109;-79
2023/12/15 05:15:50;;;;;;;92.93;44.67;;;;;;;;;;5094830;28;20039;-78
2023/12/15 05:18:17;;;;;;;94.15;45.70;;;;;;;;;;5077411;28;20427;-78
2023/12/15 05:20:43;;;;;;;90.82;46.40;;;;;;;;;;5094725;28;20052;-78
2023/12/15 05:23:11;;;;;;;112.75;47.55;;;;;;;;;;5093910;28;20040;-79
2023/12/15 05:25:37;;;;;;;85.25;43.30;;;;;;;;;;5077238;28;20052;-78
2023/12/15 05:28:03;;;;;;;94.35;45.65;;;;;;;;;;5077147;28;20055;-79
2023/12/15 05:30:29;;;;;;;110.82;47.33;;;;;;;;;;5093720;28;20097;-78
2023/12/15 05:32:55;;;;;;;100.53;46.15;;;;;;;;;;5076934;28;20044;-78
2023/12/15 05:35:21;;;;;;;91.75;44.03;;;;;;;;;;5093547;28;20055;-78
2023/12/15 05:37:49;;;;;;;117.93;48.22;;;;;;;;;;5093558;28;20048;-78
2023/12/15 05:40:16;;;;;;;93.35;44.13;;;;;;;;;;5093792;28;20491;-79
2023/12/15 05:42:42;;;;;;;95.30;46.72;;;;;;;;;;5093134;28;20048;-78
2023/12/15 05:45:08;;;;;;;90.80;44.80;;;;;;;;;;5093485;28;20044;-79
2023/12/15 05:47:36;;;;;;;99.25;44.65;;;;;;;;;;5093461;28;20044;-79
2023/12/15 05:50:03;;;;;;;101.07;45.13;;;;;;;;;;5093659;28;20052;-79
2023/12/15 05:52:29;;;;;;;84.82;42.75;;;;;;;;;;5076046;28;20052;-79
2023/12/15 05:54:55;;;;;;;92.38;44.15;;;;;;;;;;5093552;28;20144;-79
2023/12/15 05:57:21;;;;;;;100.10;45.45;;;;;;;;;;5076450;28;20442;-79
2023/12/15 05:59:47;;;;;;;94.25;45.33;;;;;;;;;;5092946;28;20484;-78
2023/12/15 06:02:13;;;;;;;95.82;45.20;;;;;;;;;;5093119;28;20484;-78
2023/12/15 06:04:39;;;;;;;97.28;47.28;;;;;;;;;;5093151;28;20449;-79
2023/12/15 06:07:05;;;;;;;91.80;43.25;;;;;;;;;;5076249;28;20206;-79
2023/12/15 06:09:31;;;;;;;99.45;46.10;;;;;;;;;;5092756;28;20052;-78
2023/12/15 06:11:57;;;;;;;92.82;45.00;;;;;;;;;;5093523;28;20471;-79
2023/12/15 06:14:25;;;;;;;97.40;46.13;;;;;;;;;;5076209;28;20040;-79
2023/12/15 06:16:52;;;;;;;83.43;41.85;;;;;;;;;;5093708;28;20055;-78
2023/12/15 06:19:18;;;;;;;84.65;42.53;;;;;;;;;;5093022;28;20052;-78
2023/12/15 06:21:44;;;;;;;87.05;42.15;;;;;;;;;;5093659;28;20529;-79
2023/12/15 06:24:10;;;;;;;112.97;44.67;;;;;;;;;;5076160;28;20048;-78
2023/12/15 06:26:36;;;;;;;81.38;40.05;;;;;;;;;;5092561;28;20404;-79
2023/12/15 06:29:02;;;;;;;87.45;42.20;;;;;;;;;;5076229;28;20425;-79
2023/12/15 06:31:29;;;;;;;99.50;44.53;;;;;;;;;;5093392;28;20051;-78
2023/12/15 06:33:55;;;;;;;89.43;41.35;;;;;;;;;;5092799;28;20391;-78
2023/12/15 06:36:22;;;;;;;83.57;39.60;;;;;;;;;;5092686;28;20448;-79
2023/12/15 06:38:48;;;;;;;80.32;39.95;;;;;;;;;;5092963;28;20139;-79
2023/12/15 06:41:14;;;;;;;96.63;41.90;;;;;;;;;;5092299;28;20051;-79
2023/12/15 06:43:44;;;;;;;77.70;38.28;;;;;;;;;;5092700;28;20109;-78
2023/12/15 06:46:11;;;;;;;86.22;39.53;;;;;;;;;;5092909;28;20180;-79
2023/12/15 06:48:37;;;;;;;82.90;36.75;;;;;;;;;;5093402;28;20047;-79
2023/12/15 06:51:03;;;;;;;83.40;38.95;;;;;;;;;;5091948;28;20048;-79
2023/12/15 06:53:29;;;;;;;84.35;37.38;;;;;;;;;;5092823;28;20044;-79
2023/12/15 06:55:55;;;;;;;84.53;36.85;;;;;;;;;;5092608;28;20107;-78
2023/12/15 06:58:21;;;;;;;78.70;38.50;;;;;;;;;;5076039;28;20059;-78
2023/12/15 07:00:47;;;;;;;78.72;39.35;;;;;;;;;;5092718;28;20056;-78
2023/12/15 07:03:13;;;;;;;81.70;40.42;;;;;;;;;;5092458;28;20086;-78
2023/12/15 07:05:39;;;;;;;84.68;39.15;;;;;;;;;;5093206;28;20044;-78
2023/12/15 07:08:06;;;;;;;107.88;43.10;;;;;;;;;;5075678;28;20048;-78
2023/12/15 07:10:32;;;;;;;84.32;39.42;;;;;;;;;;5092280;28;20047;-78
2023/12/15 07:12:58;;;;;;;102.78;41.22;;;;;;;;;;5075304;28;20055;-78
2023/12/15 07:15:27;;;;;;;83.72;40.30;;;;;;;;;;5092368;28;20093;-78
2023/12/15 07:17:53;;;;;;;82.35;40.45;;;;;;;;;;5093381;28;20083;-78
2023/12/15 07:20:20;;;;;;;97.43;45.15;;;;;;;;;;5075298;28;20052;-78
2023/12/15 07:22:47;;;;;;;90.40;43.15;;;;;;;;;;5092290;28;20090;-78
2023/12/15 07:25:13;;;;;;;80.65;42.15;;;;;;;;;;5093122;28;20132;-79
2023/12/15 07:27:39;;;;;;;86.90;41.55;;;;;;;;;;5075430;28;20044;-78
2023/12/15 07:30:05;;;;;;;85.80;41.20;;;;;;;;;;5076154;28;20047;-78
2023/12/15 07:32:31;;;;;;;86.07;41.53;;;;;;;;;;5092228;28;20087;-78
2023/12/15 07:34:58;;;;;;;74.97;38.38;;;;;;;;;;5094101;28;20098;-79
2023/12/15 07:37:24;;;;;;;81.50;39.58;;;;;;;;;;5078859;28;20054;-78
2023/12/15 07:39:50;;;;;;;79.65;38.25;;;;;;;;;;5096655;28;20040;-77
2023/12/15 07:42:16;;;;;;;81.10;38.53;;;;;;;;;;5095862;28;20040;-77
2023/12/15 07:44:42;;;;;;;78.13;38.92;;;;;;;;;;5096612;28;20071;-77
2023/12/15 07:47:08;;;;;;;85.30;40.30;;;;;;;;;;5095764;28;20087;-77
2023/12/15 07:49:34;;;;;;;78.75;38.88;;;;;;;;;;5095723;28;20040;-78
2023/12/15 07:52:01;;;;;;;75.53;39.75;;;;;;;;;;5098732;28;20079;-78
2023/12/15 07:54:29;;;;;;;77.03;39.72;;;;;;;;;;5099376;28;20065;-78
2023/12/15 07:56:55;;;;;;;72.57;37.75;;;;;;;;;;5099214;28;20130;-78
2023/12/15 07:59:21;;;;;;;77.88;39.60;;;;;;;;;;5099711;28;20048;-78
2023/12/15 08:01:51;;;;;;;77.43;39.25;;;;;;;;;;5098959;28;20044;-78
2023/12/15 08:04:18;;;;;;;70.10;38.92;;;;;;;;;;5099617;28;20372;-78
2023/12/15 08:06:44;;;;;;;73.00;39.33;;;;;;;;;;5081998;28;20140;-78
2023/12/15 08:09:10;;;;;;;79.63;39.38;;;;;;;;;;5098780;28;20100;-78
2023/12/15 08:11:36;;;;;;;73.35;37.58;;;;;;;;;;5099215;28;20066;-78
2023/12/15 08:14:03;;;;;;;71.45;37.42;;;;;;;;;;5098917;28;20155;-78
2023/12/15 08:16:30;;;;;;;73.78;37.80;;;;;;;;;;5098594;28;20051;-78
2023/12/15 08:18:57;;;;;;;71.10;37.42;;;;;;;;;;5099379;28;20058;-78
2023/12/15 08:21:23;;;;;;;72.35;37.65;;;;;;;;;;5098765;28;20040;-78
2023/12/15 08:23:49;;;;;;;73.03;37.20;;;;;;;;;;5099283;28;20043;-78
2023/12/15 08:26:23;;;;;;;65.20;34.45;;;;;;;;;;5099276;28;20404;-78
2023/12/15 08:28:49;;;;;;;66.40;34.77;;;;;;;;;;5081560;28;20047;-78
2023/12/15 08:31:15;;;;;;;67.32;34.75;;;;;;;;;;5097969;28;20510;-78
2023/12/15 08:33:42;;;;;;;66.70;35.65;;;;;;;;;;5081578;28;20130;-78
2023/12/15 08:36:09;;;;;;;72.25;35.55;;;;;;;;;;5082226;28;20067;-79
2023/12/15 08:38:35;;;;;;;69.07;34.75;;;;;;;;;;5097835;28;20040;-78
2023/12/15 08:41:01;;;;;;;65.00;34.25;;;;;;;;;;5097681;28;20498;-79
2023/12/15 08:43:27;;;;;;;64.68;34.28;;;;;;;;;;5082045;28;20367;-78
2023/12/15 08:45:54;;;;;;;67.57;35.00;;;;;;;;;;5097503;28;20384;-78
2023/12/15 08:48:20;;;;;;;66.57;34.28;;;;;;;;;;5097965;28;20052;-79
2023/12/15 08:50:56;;;;;;;59.60;34.35;;;;;;;;;;5077108;28;20137;-78
2023/12/15 08:53:22;;;;;;;60.65;33.03;;;;;;;;;;5078515;28;20109;-78
2023/12/15 08:55:49;;;;;;;60.20;33.00;;;;;;;;;;5094487;28;20043;-78
2023/12/15 08:58:15;;;;;;;59.17;31.63;;;;;;;;;;5094687;28;20397;-78
2023/12/15 09:00:42;;;;;;;62.40;33.28;;;;;;;;;;5094417;28;20491;-78
2023/12/15 09:03:08;;;;;;;54.63;32.50;;;;;;;;;;5094641;28;20048;-78
2023/12/15 09:05:34;;;;;;;60.10;30.77;;;;;;;;;;5094339;28;20044;-78
2023/12/15 09:08:02;;;;;;;57.55;31.63;;;;;;;;;;5077521;28;20480;-78
2023/12/15 09:10:34;;;;;;;49.78;30.20;;;;;;;;;;5094915;28;20106;-78
2023/12/15 09:13:04;;;;;;;58.47;31.80;;;;;;;;;;5094553;28;20051;-78
2023/12/15 09:15:30;;;;;;;54.88;31.63;;;;;;;;;;5095029;28;20044;-78
2023/12/15 09:17:56;;;;;;;56.78;32.20;;;;;;;;;;5094468;28;20203;-79
2023/12/15 09:20:24;;;;;;;54.15;31.70;;;;;;;;;;5094279;28;20518;-78
2023/12/15 09:22:50;;;;;;;56.63;31.27;;;;;;;;;;5094051;28;20056;-78
2023/12/15 09:25:16;;;;;;;51.58;29.30;;;;;;;;;;5077127;28;20101;-78
2023/12/15 09:27:42;;;;;;;57.50;30.67;;;;;;;;;;5094181;28;20086;-78
2023/12/15 09:30:08;;;;;;;48.58;29.52;;;;;;;;;;5093801;28;20048;-78
2023/12/15 09:32:34;;;;;;;52.50;29.42;;;;;;;;;;5060190;28;20482;-78
2023/12/15 09:35:00;;;;;;;50.10;28.52;;;;;;;;;;5094581;28;20134;-78
2023/12/15 09:37:26;;;;;;;48.63;28.17;;;;;;;;;;5094539;28;20467;-79
2023/12/15 09:39:53;;;;;;;53.78;28.27;;;;;;;;;;5093591;28;20086;-79
2023/12/15 09:42:19;;;;;;;53.60;28.17;;;;;;;;;;5093924;28;20063;-79
2023/12/15 09:44:45;;;;;;;49.10;27.35;;;;;;;;;;5093580;28;20484;-78
2023/12/15 09:47:12;;;;;;;53.13;28.23;;;;;;;;;;5093806;28;20054;-78
2023/12/15 09:49:39;;;;;;;49.58;27.70;;;;;;;;;;5093844;28;20059;-78
2023/12/15 09:52:08;;;;;;;42.97;26.88;;;;;;;;;;5115460;28;20091;-78
2023/12/15 09:54:34;;;;;;;42.33;26.60;;;;;;;;;;5079961;28;20054;-78
2023/12/15 09:57:00;;;;;;;48.85;25.60;;;;;;;;;;5096438;28;20391;-79
2023/12/15 09:59:26;;;;;;;46.08;24.75;;;;;;;;;;5096698;28;20388;-78
2023/12/15 10:01:53;;;;;;;49.35;27.52;;;;;;;;;;5097532;28;20048;-78
2023/12/15 10:04:19;;;;;;;51.95;25.55;;;;;;;;;;5096926;28;20047;-78
2023/12/15 10:06:47;;;;;;;42.85;23.85;;;;;;;;;;5079752;28;20054;-78
2023/12/15 10:09:13;;;;;;;44.65;23.88;;;;;;;;;;5079447;28;20108;-78
2023/12/15 10:11:40;;;;;;;42.50;22.13;;;;;;;;;;5097090;28;20066;-78
2023/12/15 10:14:07;;;;;;;42.83;21.92;;;;;;;;;;5097315;28;20039;-78
2023/12/15 10:16:37;;;;;;;38.28;21.52;;;;;;;;;;5096130;28;20479;-78
2023/12/15 10:19:07;;;;;;;38.95;21.92;;;;;;;;;;5079353;28;20047;-78
2023/12/15 10:21:33;;;;;;;42.58;21.30;;;;;;;;;;5096682;28;20046;-79
2023/12/15 10:24:00;;;;;;;41.47;20.08;;;;;;;;;;5079892;28;20043;-78
2023/12/15 10:26:29;;;;;;;38.10;18.33;;;;;;;;;;5080215;28;20047;-78
2023/12/15 10:28:56;;;;;;;48.10;20.83;;;;;;;;;;5096269;28;20110;-78
2023/12/15 10:31:26;;;;;;;39.33;18.85;;;;;;;;;;5096023;28;20509;-78
2023/12/15 10:33:52;;;;;;;38.50;19.30;;;;;;;;;;5096288;28;20087;-78
2023/12/15 10:36:18;;;;;;;34.55;17.60;;;;;;;;;;5079434;28;20134;-78
2023/12/15 10:38:44;;;;;;;41.05;19.08;;;;;;;;;;5095942;28;20475;-78
2023/12/15 10:41:11;;;;;;;34.90;18.80;;;;;;;;;;5096071;28;20046;-78
2023/12/15 10:43:37;;;;;;;40.78;18.05;;;;;;;;;;5095827;28;20074;-78
2023/12/15 10:46:04;;;;;;;31.98;17.67;;;;;;;;;;5095763;28;20047;-78
2023/12/15 10:48:30;;;;;;;40.22;18.55;;;;;;;;;;5096064;28;20105;-78
2023/12/15 10:50:57;;;;;;;37.83;18.73;;;;;;;;;;5095735;28;20055;-78
2023/12/15 10:53:23;;;;;;;42.67;17.65;;;;;;;;;;5095767;28;20051;-78
2023/12/15 10:55:49;;;;;;;42.78;18.33;;;;;;;;;;5096614;28;20446;-78
2023/12/15 10:58:16;;;;;;;40.60;16.95;;;;;;;;;;5113992;28;20044;-78
2023/12/15 11:00:42;;;;;;;31.48;14.70;;;;;;;;;;5095607;28;20062;-78
2023/12/15 11:03:10;;;;;;;39.25;14.63;;;;;;;;;;5095674;28;20039;-78
2023/12/15 11:05:39;;;;;;;38.53;14.35;;;;;;;;;;5079011;28;20051;-78
2023/12/15 11:08:06;;;;;;;33.42;14.18;;;;;;;;;;5095867;28;20386;-78
2023/12/15 11:10:32;;;;;;;36.25;13.80;;;;;;;;;;5099218;28;20470;-78
2023/12/15 11:12:58;;;;;;;37.72;13.88;;;;;;;;;;5099595;28;20494;-78
2023/12/15 11:15:26;;;;;;;34.20;11.93;;;;;;;;;;5099850;28;20048;-78
2023/12/15 11:17:57;;;;;;;32.97;12.13;;;;;;;;;;5099802;28;20058;-78
2023/12/15 11:20:25;;;;;;;39.70;11.43;;;;;;;;;;5083109;28;20054;-78
2023/12/15 11:22:58;;;;;;;33.97;10.55;;;;;;;;;;5082857;28;20055;-78
2023/12/15 11:25:27;;;;;;;30.40;10.13;;;;;;;;;;5099706;28;20044;-78
2023/12/15 11:28:15;;;;;;;33.83;10.10;;;;;;;;;;5117603;28;20051;-78
2023/12/15 11:30:52;;;;;;;37.70;10.68;;;;;;;;;;5082252;28;20138;-78
2023/12/15 11:33:24;;;;;;;38.72;10.30;;;;;;;;;;5083208;28;20383;-78
2023/12/15 11:35:53;;;;;;;34.22;10.57;;;;;;;;;;5082591;28;20043;-78
2023/12/15 11:38:23;;;;;;;41.92;10.88;;;;;;;;;;5100243;28;20046;-78
2023/12/15 11:40:49;;;;;;;37.75;9.57;;;;;;;;;;5099307;28;20435;-79
2023/12/15 11:43:15;;;;;;;30.30;9.43;;;;;;;;;;5099324;28;20044;-78
2023/12/15 11:45:42;;;;;;;36.13;9.68;;;;;;;;;;5100071;28;20090;-78
2023/12/15 11:48:11;;;;;;;35.42;9.13;;;;;;;;;;5082328;28;20613;-78
2023/12/15 11:50:43;;;;;;;32.85;8.70;;;;;;;;;;5098885;28;20048;-78
2023/12/15 11:53:10;;;;;;;26.92;8.18;;;;;;;;;;5099059;28;20560;-78
2023/12/15 11:55:36;;;;;;;31.88;8.90;;;;;;;;;;5099898;28;20097;-78
2023/12/15 11:58:03;;;;;;;31.65;8.48;;;;;;;;;;5117064;28;20092;-78
2023/12/15 12:00:29;;;;;;;35.17;8.70;;;;;;;;;;5082070;28;20505;-78
2023/12/15 12:02:58;;;;;;;27.00;7.95;;;;;;;;;;5082038;28;20051;-78
2023/12/15 12:05:25;;;;;;;34.03;8.30;;;;;;;;;;5098559;28;20479;-78
2023/12/15 12:07:51;;;;;;;33.13;8.15;;;;;;;;;;5098862;28;20085;-78
2023/12/15 12:10:17;;;;;;;31.58;8.43;;;;;;;;;;5098613;28;20047;-78
2023/12/15 12:12:43;;;;;;;34.92;8.15;;;;;;;;;;5099562;28;20050;-78
2023/12/15 12:15:11;;;;;;;30.38;8.32;;;;;;;;;;5098704;28;20051;-78
2023/12/15 12:17:38;;;;;;;32.60;7.00;;;;;;;;;;5082031;28;20036;-78
2023/12/15 12:20:06;;;;;;;24.58;7.20;;;;;;;;;;5098327;28;20134;-78
2023/12/15 12:22:38;;;;;;;26.75;6.43;;;;;;;;;;5098843;28;20108;-78
2023/12/15 12:25:04;;;;;;;23.95;6.65;;;;;;;;;;5098874;28;20074;-78
2023/12/15 12:27:32;;;;;;;31.77;6.63;;;;;;;;;;5117035;28;20047;-78
2023/12/15 12:29:59;;;;;;;23.58;5.90;;;;;;;;;;5098723;28;20043;-78
2023/12/15 12:32:25;;;;;;;26.25;5.35;;;;;;;;;;5081586;28;20044;-78
2023/12/15 12:34:52;;;;;;;28.27;6.25;;;;;;;;;;5098374;28;20048;-78
2023/12/15 12:37:18;;;;;;;29.80;6.10;;;;;;;;;;5098248;28;20046;-78
2023/12/15 12:39:45;;;;;;;27.70;6.20;;;;;;;;;;5097971;28;20071;-78
2023/12/15 12:42:11;;;;;;;24.98;6.22;;;;;;;;;;5080891;28;20549;-78
2023/12/15 12:44:39;;;;;;;33.38;6.30;;;;;;;;;;5098979;28;20043;-78
2023/12/15 12:47:05;;;;;;;36.65;7.30;;;;;;;;;;5081265;28;20058;-78
2023/12/15 12:49:31;;;;;;;31.02;6.30;;;;;;;;;;5098067;28;20039;-78
2023/12/15 12:51:57;;;;;;;34.78;7.40;;;;;;;;;;5097012;28;20055;-78
2023/12/15 12:54:23;;;;;;;30.33;6.15;;;;;;;;;;5081170;28;20484;-78
2023/12/15 12:56:49;;;;;;;28.20;5.35;;;;;;;;;;5097938;28;20055;-78
2023/12/15 12:59:17;;;;;;;31.55;6.18;;;;;;;;;;5097866;28;20040;-78
2023/12/15 13:01:43;;;;;;;25.98;6.32;;;;;;;;;;5098112;28;20398;-78
2023/12/15 13:04:10;;;;;;;38.15;6.25;;;;;;;;;;5097783;28;20085;-78
2023/12/15 13:06:38;;;;;;;36.97;6.68;;;;;;;;;;5097813;28;20468;-78
2023/12/15 13:09:04;;;;;;;35.13;6.97;;;;;;;;;;5097631;28;20039;-78
2023/12/15 13:11:30;;;;;;;28.17;6.53;;;;;;;;;;5080529;28;20558;-78
2023/12/15 13:13:56;;;;;;;29.83;6.80;;;;;;;;;;5098443;28;20055;-78
2023/12/15 13:16:22;;;;;;;38.05;7.97;;;;;;;;;;5097543;28;20044;-78
2023/12/15 13:18:49;;;;;;;34.33;6.75;;;;;;;;;;5097506;28;20444;-78
2023/12/15 13:21:15;;;;;;;27.90;6.65;;;;;;;;;;5115369;28;20043;-78
2023/12/15 13:23:41;;;;;;;33.10;6.30;;;;;;;;;;5097384;28;20074;-78
2023/12/15 13:26:08;;;;;;;34.05;7.57;;;;;;;;;;5097351;28;20052;-78
2023/12/15 13:28:36;;;;;;;30.70;5.78;;;;;;;;;;5097275;28;20122;-78
2023/12/15 13:31:04;;;;;;;25.05;6.18;;;;;;;;;;5081016;28;20048;-78
2023/12/15 13:33:31;;;;;;;36.88;6.70;;;;;;;;;;5079597;28;20134;-78
2023/12/15 13:35:57;;;;;;;33.38;6.57;;;;;;;;;;5097167;28;20387;-78
2023/12/15 13:38:24;;;;;;;32.78;6.55;;;;;;;;;;5097126;28;20047;-78
2023/12/15 13:40:50;;;;;;;32.55;6.28;;;;;;;;;;5080521;28;20048;-78
2023/12/15 13:43:16;;;;;;;31.23;6.40;;;;;;;;;;5097000;28;20036;-78
2023/12/15 13:45:42;;;;;;;39.88;7.13;;;;;;;;;;5114943;28;20051;-78
2023/12/15 13:48:08;;;;;;;37.30;6.72;;;;;;;;;;5096988;28;20503;-78
2023/12/15 13:50:34;;;;;;;33.25;6.55;;;;;;;;;;5096470;28;20423;-78
2023/12/15 13:53:02;;;;;;;30.80;6.47;;;;;;;;;;5097167;28;20070;-78
2023/12/15 13:55:29;;;;;;;28.85;6.53;;;;;;;;;;5097564;28;20051;-78
2023/12/15 13:57:55;;;;;;;25.88;5.55;;;;;;;;;;5114769;28;20051;-78
2023/12/15 14:00:24;;;;;;;28.52;5.75;;;;;;;;;;5096726;28;20395;-78
2023/12/15 14:02:51;;;;;;;22.02;5.05;;;;;;;;;;5097534;28;20361;-78
2023/12/15 14:05:17;;;;;;;23.75;5.47;;;;;;;;;;5096365;28;20047;-78
2023/12/15 14:07:43;;;;;;;35.40;6.32;;;;;;;;;;5097431;28;20093;-78
2023/12/15 14:10:09;;;;;;;35.33;6.47;;;;;;;;;;5096537;28;20103;-78
2023/12/15 14:12:35;;;;;;;24.20;5.60;;;;;;;;;;5095919;28;20054;-78
2023/12/15 14:15:01;;;;;;;24.52;5.38;;;;;;;;;;5096742;28;20047;-78